Time;durP1;ratioP1;P1;durP2;ratioP2;P2;SDS_P1;SDS_P2;PMS_P1;PMS_P2;Temp;Humidity;BMP_temperature;BMP_pressure;BME280_temperature;BME280_humidity;BME280_pressure;Samples;Min_cycle;Max_cycle;Signal;HPM_P1;HPM_P2
2023/01/05 00:01:54;;;;;;;36.13;6.65;;;;;;;17.85;100.00;101419.31;5111456;28;20048;-54
2023/01/05 00:04:19;;;;;;;38.28;5.85;;;;;;;22.11;100.00;101424.94;5111496;28;20032;-55
2023/01/05 00:06:45;;;;;;;50.93;7.33;;;;;;;17.20;100.00;101410.81;5112787;28;20035;-54
2023/01/05 00:09:14;;;;;;;32.77;6.00;;;;;;;16.87;100.00;101406.53;5108118;28;20304;-55
2023/01/05 00:23:05;;;;;;;40.40;6.83;;;;;;;19.71;100.00;101425.41;5112353;28;20264;-54
2023/01/05 00:25:35;;;;;;;39.33;6.13;;;;;;;16.91;100.00;101410.44;5108005;28;20273;-54
2023/01/05 00:28:01;;;;;;;56.97;6.37;;;;;;;16.65;100.00;101414.25;5112818;28;20275;-54
2023/01/05 00:30:34;;;;;;;41.78;8.02;;;;;;;16.65;100.00;101418.81;5113371;28;20265;-53
2023/01/05 00:33:00;;;;;;;46.07;8.23;;;;;;;16.76;100.00;101415.41;5106461;28;20032;-52
2023/01/05 00:35:28;;;;;;;45.37;7.77;;;;;;;16.51;100.00;101413.56;5089899;28;20340;-55
2023/01/05 00:37:53;;;;;;;42.37;8.07;;;;;;;16.89;100.00;101415.25;5109340;28;20036;-50
2023/01/05 00:40:20;;;;;;;52.42;7.25;;;;;;;17.61;100.00;101416.53;5108609;28;20302;-50
2023/01/05 00:42:47;;;;;;;63.57;7.50;;;;;;;17.36;100.00;101410.41;5109979;28;20058;-55
2023/01/05 00:45:14;;;;;;;49.85;7.90;;;;;;;16.54;100.00;101407.72;5109764;28;20287;-54
2023/01/05 00:47:40;;;;;;;44.30;6.57;;;;;;;16.41;100.00;101413.22;5109216;28;20036;-53
2023/01/05 00:50:07;;;;;;;55.38;7.45;;;;;;;16.60;100.00;101423.00;5092539;28;20311;-50
2023/01/05 00:52:34;;;;;;;46.37;8.13;;;;;;;16.76;100.00;101421.59;5111229;28;20130;-55
2023/01/05 00:54:59;;;;;;;40.78;6.43;;;;;;;16.73;100.00;101416.66;5107021;28;20382;-52
2023/01/05 00:57:25;;;;;;;48.40;8.47;;;;;;;17.20;100.00;101434.28;5109312;28;20032;-50
2023/01/05 00:59:52;;;;;;;53.30;7.73;;;;;;;17.09;100.00;101433.16;5096427;28;20031;-55
2023/01/05 01:02:18;;;;;;;48.65;9.48;;;;;;;16.61;100.00;101432.75;5111220;28;20261;-54
2023/01/05 01:04:45;;;;;;;41.15;6.93;;;;;;;16.68;100.00;101446.22;5106917;28;20033;-55
2023/01/05 01:07:10;;;;;;;43.40;5.97;;;;;;;16.66;100.00;101440.22;5094551;28;20050;-55
2023/01/05 01:09:36;;;;;;;36.53;6.80;;;;;;;16.70;100.00;101438.72;5108021;28;20056;-57
2023/01/05 01:12:02;;;;;;;66.03;7.90;;;;;;;16.92;100.00;101454.50;5109294;28;20092;-52
2023/01/05 01:14:28;;;;;;;54.92;7.55;;;;;;;16.98;100.00;101440.13;5090600;28;20028;-56
2023/01/05 01:16:53;;;;;;;40.25;5.72;;;;;;;17.42;100.00;101448.19;5093991;28;20121;-53
2023/01/05 01:19:22;;;;;;;39.60;5.77;;;;;;;20.71;100.00;101459.41;5107859;28;20033;-50
2023/01/05 01:21:48;;;;;;;45.77;8.13;;;;;;;17.58;100.00;101443.19;5112699;28;20034;-51
2023/01/05 01:24:21;;;;;;;53.87;7.07;;;;;;;17.98;100.00;101447.22;5107876;28;20302;-52
2023/01/05 01:26:46;;;;;;;40.20;6.60;;;;;;;16.43;100.00;101446.19;5086504;28;20272;-53
2023/01/05 01:29:12;;;;;;;52.25;7.53;;;;;;;16.82;100.00;101456.88;5105061;28;20271;-54
2023/01/05 01:31:39;;;;;;;;;;;;;;;15.95;100.00;101461.88;5112240;28;20055;-54
2023/01/05 01:34:04;;;;;;;44.27;6.00;;;;;;;20.78;100.00;101478.28;5111019;28;19916;-52
2023/01/05 01:36:30;;;;;;;35.80;7.33;;;;;;;17.67;100.00;101465.34;5110552;28;20034;-49
2023/01/05 01:38:56;;;;;;;48.40;7.20;;;;;;;17.42;100.00;101485.19;5086811;28;20091;-52
2023/01/05 01:41:22;;;;;;;34.97;5.25;;;;;;;17.13;100.00;101471.38;5106392;28;20024;-53
2023/01/05 01:43:54;;;;;;;49.87;6.80;;;;;;;17.03;100.00;101486.22;5094898;28;20036;-53
2023/01/05 01:46:24;;;;;;;51.13;6.50;;;;;;;16.73;100.00;101499.56;5095233;28;20272;-53
2023/01/05 01:48:59;;;;;;;41.93;7.10;;;;;;;16.79;100.00;101498.69;5113313;28;20256;-53
2023/01/05 01:51:31;;;;;;;42.73;6.67;;;;;;;17.29;100.00;101503.19;5099544;28;20248;-55
2023/01/05 01:54:01;;;;;;;39.13;7.27;;;;;;;17.09;100.00;101498.00;5112070;28;20273;-53
2023/01/05 01:56:34;;;;;;;39.57;8.03;;;;;;;16.81;100.00;101490.34;5116752;28;20371;-53
2023/01/05 01:59:00;;;;;;;49.40;7.20;;;;;;;16.93;100.00;101504.78;5093674;28;20281;-51
2023/01/05 02:01:27;;;;;;;43.23;6.47;;;;;;;17.04;100.00;101504.06;5091263;28;20294;-53
2023/01/05 02:03:55;;;;;;;47.72;6.25;;;;;;;16.99;100.00;101506.63;5111324;28;20284;-53
2023/01/05 02:06:20;;;;;;;54.77;6.93;;;;;;;17.87;100.00;101505.66;5100861;28;20040;-55
2023/01/05 02:08:46;;;;;;;52.67;7.03;;;;;;;18.25;100.00;101509.16;5110853;28;20279;-50
2023/01/05 02:11:36;;;;;;;40.30;7.17;;;;;;;17.25;100.00;101504.72;5100297;28;20043;-54
2023/01/05 02:14:27;;;;;;;41.70;7.33;;;;;;;17.21;100.00;101503.50;5098601;28;20332;-51
2023/01/05 02:17:13;;;;;;;42.03;6.87;;;;;;;16.85;100.00;101510.47;5109610;28;20260;-53
2023/01/05 02:19:48;;;;;;;52.90;7.27;;;;;;;17.04;100.00;101504.06;5101017;28;20300;-55
2023/01/05 02:22:55;;;;;;;44.40;7.07;;;;;;;18.44;100.00;101499.88;5095447;28;20280;-55
2023/01/05 02:25:43;;;;;;;63.20;7.50;;;;;;;19.40;100.00;101522.44;5037395;28;20277;-54
2023/01/05 02:28:37;;;;;;;36.73;6.17;;;;;;;19.87;100.00;101517.97;5037031;28;20044;-56
2023/01/05 02:31:13;;;;;;;40.20;6.30;;;;;;;18.74;100.00;101519.84;5090239;28;20264;-53
2023/01/05 02:33:53;;;;;;;45.83;7.10;;;;;;;17.77;100.00;101517.84;5114866;28;20328;-53
2023/01/05 02:36:25;;;;;;;47.33;6.70;;;;;;;18.84;100.00;101508.41;5094135;28;20281;-54
2023/01/05 02:39:16;;;;;;;47.33;7.87;;;;;;;17.29;100.00;101503.19;5092343;28;20058;-54
2023/01/05 02:41:56;;;;;;;37.20;7.97;;;;;;;17.15;100.00;101509.81;5094915;28;20332;-56
2023/01/05 02:44:26;;;;;;;53.27;9.93;;;;;;;17.46;100.00;101516.13;5094136;28;20276;-55
2023/01/05 02:47:04;;;;;;;41.37;7.13;;;;;;;16.54;100.00;101517.56;5110124;28;20279;-55
2023/01/05 02:49:35;;;;;;;58.78;7.72;;;;;;;16.66;100.00;101507.72;5096212;28;20348;-52
2023/01/05 02:52:03;;;;;;;65.33;13.00;;;;;;;16.63;100.00;101521.66;5112226;28;20040;-53
2023/01/05 02:54:37;;;;;;;55.27;9.60;;;;;;;17.68;100.00;101524.63;5109930;28;20348;-54
2023/01/05 02:57:11;;;;;;;79.63;15.40;;;;;;;17.00;100.00;101513.69;5094689;28;20274;-54
2023/01/05 02:59:50;;;;;;;64.20;14.57;;;;;;;16.99;100.00;101524.72;5108646;28;20942;-52
2023/01/05 03:02:23;;;;;;;55.50;14.53;;;;;;;17.19;100.00;101521.81;5107747;28;20294;-52
2023/01/05 03:05:03;;;;;;;59.57;13.80;;;;;;;16.90;100.00;101524.97;5092770;28;20293;-55
2023/01/05 03:07:33;;;;;;;45.53;12.40;;;;;;;17.08;100.00;101530.69;5095872;28;20268;-52
2023/01/05 03:13:39;;;;;;;62.13;13.37;;;;;;;17.28;100.00;101525.88;5114513;28;20292;-54
2023/01/05 03:15:35;;;;;;;65.27;13.97;;;;;;;17.03;100.00;101523.22;5109182;28;20046;-51
2023/01/05 03:18:18;;;;;;;59.27;12.67;;;;;;;17.07;100.00;101521.72;5098770;28;20311;-51
2023/01/05 03:20:50;;;;;;;75.20;15.50;;;;;;;17.15;100.00;101523.31;5098304;28;20262;-56
2023/01/05 03:37:33;;;;;;;78.50;16.70;;;;;;;16.94;100.00;101519.09;5116839;28;20272;-54
2023/01/05 03:40:03;;;;;;;77.38;17.80;;;;;;;17.31;100.00;101525.47;5097826;28;20310;-51
2023/01/05 03:42:33;;;;;;;65.33;15.90;;;;;;;17.05;100.00;101527.34;5121635;28;20035;-53
2023/01/05 03:45:02;;;;;;;70.97;16.43;;;;;;;17.30;100.00;101525.66;5118541;28;20257;-51
2023/01/05 03:47:29;;;;;;;75.83;16.67;;;;;;;18.56;100.00;101529.69;5102967;28;20307;-56
2023/01/05 03:49:56;;;;;;;59.97;13.45;;;;;;;17.08;100.00;101525.28;5097470;28;20304;-54
2023/01/05 03:52:21;;;;;;;68.95;14.85;;;;;;;16.64;100.00;101531.41;5099521;28;20035;-53
2023/01/05 03:54:48;;;;;;;56.90;15.90;;;;;;;17.20;100.00;101537.00;5097432;28;20032;-55
2023/01/05 03:57:14;;;;;;;84.68;17.50;;;;;;;17.04;100.00;101527.59;5101880;28;20293;-54
2023/01/05 03:59:40;;;;;;;74.07;15.60;;;;;;;17.16;100.00;101538.50;5106074;28;20059;-55
2023/01/05 04:02:05;;;;;;;64.07;14.30;;;;;;;16.63;100.00;101535.16;5101672;28;20036;-55
2023/01/05 04:04:31;;;;;;;55.95;12.75;;;;;;;17.16;100.00;101524.97;5118747;28;20032;-55
2023/01/05 04:06:58;;;;;;;67.20;13.47;;;;;;;16.92;100.00;101533.66;5101023;28;20042;-57
2023/01/05 04:09:25;;;;;;;55.37;12.30;;;;;;;16.97;100.00;101529.50;5100819;28;20260;-55
2023/01/05 04:11:51;;;;;;;55.83;15.20;;;;;;;17.26;100.00;101527.97;5100743;28;20357;-52
2023/01/05 04:14:16;;;;;;;70.37;16.77;;;;;;;17.40;100.00;101514.34;5117272;28;20372;-54
2023/01/05 04:16:42;;;;;;;65.25;13.88;;;;;;;17.29;100.00;101532.13;5118718;28;20036;-54
2023/01/05 04:19:13;;;;;;;70.20;15.80;;;;;;;17.42;100.00;101532.00;5104783;28;20089;-53
2023/01/05 04:21:39;;;;;;;59.53;14.80;;;;;;;16.82;100.00;101538.75;5100592;28;20268;-50
2023/01/05 04:24:08;;;;;;;;;;;;;;;17.43;100.00;101533.66;5121557;28;20023;-52
2023/01/05 04:26:38;;;;;;;60.50;10.90;;;;;;;18.37;100.00;101537.06;5103159;28;19991;-49
2023/01/05 04:29:04;;;;;;;53.33;12.23;;;;;;;18.59;100.00;101539.25;5100972;28;20275;-53
2023/01/05 04:31:32;;;;;;;67.77;16.43;;;;;;;17.82;100.00;101535.28;5101670;28;20279;-51
2023/01/05 04:33:57;;;;;;;70.78;17.58;;;;;;;17.15;100.00;101531.44;5089139;28;20282;-54
2023/01/05 04:36:24;;;;;;;73.27;17.47;;;;;;;17.27;100.00;101537.75;5077987;28;20029;-51
2023/01/05 04:38:53;;;;;;;68.47;17.87;;;;;;;17.33;100.00;101531.47;5076013;28;20282;-54
2023/01/05 04:41:19;;;;;;;59.75;12.73;;;;;;;17.36;100.00;101535.56;5076107;28;20287;-53
2023/01/05 04:43:48;;;;;;;72.60;15.70;;;;;;;17.12;100.00;101537.28;5074936;28;20036;-54
2023/01/05 04:46:14;;;;;;;52.38;14.82;;;;;;;17.26;100.00;101536.09;5077074;28;20270;-53
2023/01/05 04:48:43;;;;;;;73.00;17.67;;;;;;;17.25;100.00;101539.84;5076723;28;20039;-55
2023/01/05 04:51:09;;;;;;;74.03;17.58;;;;;;;17.17;100.00;101549.06;5078655;28;20285;-55
2023/01/05 04:53:37;;;;;;;62.53;16.00;;;;;;;17.27;100.00;101551.25;5078021;28;20037;-53
2023/01/05 04:56:04;;;;;;;62.70;16.10;;;;;;;17.44;100.00;101546.13;5078039;28;20273;-53
2023/01/05 04:58:36;;;;;;;63.27;16.27;;;;;;;17.74;100.00;101553.47;5078751;28;20278;-52
2023/01/05 05:01:01;;;;;;;57.53;15.90;;;;;;;17.67;100.00;101541.06;5076431;28;20274;-53
2023/01/05 05:03:29;;;;;;;72.43;18.57;;;;;;;17.52;100.00;101546.88;5074859;28;20087;-51
2023/01/05 05:05:57;;;;;;;68.93;19.43;;;;;;;17.49;100.00;101556.25;5075475;28;20263;-51
2023/01/05 05:08:25;;;;;;;67.73;18.97;;;;;;;17.45;100.00;101553.19;5074658;28;20278;-54
2023/01/05 05:10:51;;;;;;;75.32;16.65;;;;;;;17.24;100.00;101567.13;5075656;28;20266;-54
2023/01/05 05:13:18;;;;;;;77.43;20.37;;;;;;;17.52;100.00;101552.28;5075018;28;20041;-56
2023/01/05 05:15:44;;;;;;;68.35;18.17;;;;;;;17.72;100.00;101568.25;5078140;28;20285;-54
2023/01/05 05:18:10;;;;;;;;;;;;;;;17.56;100.00;101567.84;5075340;28;20037;-53
2023/01/05 05:20:41;;;;;;;60.58;14.32;;;;;;;17.44;100.00;101565.03;5072837;28;19920;-52
2023/01/05 05:23:07;;;;;;;63.33;15.83;;;;;;;17.27;100.00;101567.47;5075828;28;20044;-55
2023/01/05 05:25:34;;;;;;;52.97;14.03;;;;;;;17.37;100.00;101566.97;5074220;28;20338;-52
2023/01/05 05:28:00;;;;;;;52.88;13.23;;;;;;;16.97;100.00;101594.34;5075946;28;20273;-53
2023/01/05 05:30:25;;;;;;;49.30;10.90;;;;;;;17.38;100.00;101575.91;5074658;28;20041;-54
2023/01/05 05:32:51;;;;;;;51.17;12.13;;;;;;;17.84;100.00;101584.56;5075048;28;20025;-54
2023/01/05 05:35:16;;;;;;;61.27;14.93;;;;;;;17.19;100.00;101584.00;5112277;28;20276;-54
2023/01/05 05:37:42;;;;;;;58.45;15.43;;;;;;;17.54;100.00;101596.13;5121592;28;20032;-54
2023/01/05 05:40:08;;;;;;;59.70;16.53;;;;;;;17.59;100.00;101583.59;5119538;28;20031;-55
2023/01/05 05:42:34;;;;;;;63.90;14.75;;;;;;;17.88;100.00;101588.50;5116959;28;20272;-55
2023/01/05 05:44:59;;;;;;;50.90;10.20;;;;;;;17.39;100.00;101607.31;5118087;28;20040;-54
2023/01/05 05:47:25;;;;;;;63.35;12.98;;;;;;;17.46;100.00;101598.09;5119330;28;20276;-53
2023/01/05 05:49:51;;;;;;;64.00;13.17;;;;;;;17.90;100.00;101611.56;5120705;28;20112;-52
2023/01/05 05:52:16;;;;;;;63.37;15.63;;;;;;;17.54;100.00;101615.06;5119834;28;20294;-51
2023/01/05 05:54:42;;;;;;;70.45;15.82;;;;;;;17.67;100.00;101611.41;5118364;28;20036;-54
2023/01/05 05:57:07;;;;;;;56.80;11.80;;;;;;;17.99;100.00;101614.78;5117320;28;20036;-52
2023/01/05 05:59:33;;;;;;;51.83;11.25;;;;;;;17.76;100.00;101623.56;5101893;28;20132;-52
2023/01/05 06:01:58;;;;;;;65.50;13.70;;;;;;;17.38;100.00;101613.75;5115128;28;20073;-53
2023/01/05 06:04:24;;;;;;;61.93;16.83;;;;;;;17.84;100.00;101620.59;5119110;28;20038;-52
2023/01/05 06:06:49;;;;;;;69.70;17.10;;;;;;;17.83;100.00;101612.69;5115511;28;20075;-53
2023/01/05 06:09:15;;;;;;;60.05;13.55;;;;;;;17.41;100.00;101624.13;5117052;28;20092;-52
2023/01/05 06:11:40;;;;;;;56.25;14.48;;;;;;;17.49;100.00;101616.56;5117485;28;20035;-54
2023/01/05 06:14:07;;;;;;;52.20;11.20;;;;;;;16.83;100.00;101621.44;5116142;28;20046;-53
2023/01/05 06:16:32;;;;;;;69.72;14.30;;;;;;;17.16;100.00;101625.78;5117276;28;20036;-51
2023/01/05 06:18:58;;;;;;;60.73;15.83;;;;;;;17.34;100.00;101622.31;5116296;28;20356;-50
2023/01/05 06:21:23;;;;;;;82.10;19.47;;;;;;;18.05;100.00;101635.56;5116765;28;20298;-49
2023/01/05 06:23:49;;;;;;;67.97;17.95;;;;;;;18.23;100.00;101633.09;5116845;28;20043;-55
2023/01/05 06:26:14;;;;;;;71.85;16.95;;;;;;;17.55;100.00;101647.31;5117723;28;20070;-56
2023/01/05 06:28:40;;;;;;;72.82;14.63;;;;;;;18.06;100.00;101658.06;5112850;28;20024;-48
2023/01/05 06:31:05;;;;;;;63.83;14.37;;;;;;;17.60;100.00;101646.63;5112910;28;20058;-53
2023/01/05 06:33:31;;;;;;;67.95;15.05;;;;;;;17.49;100.00;101640.91;5112525;28;20051;-52
2023/01/05 06:35:59;;;;;;;75.27;19.37;;;;;;;17.61;100.00;101645.56;5117542;28;20039;-55
2023/01/05 06:38:26;;;;;;;75.77;16.97;;;;;;;17.44;100.00;101659.69;5119095;28;20044;-52
2023/01/05 06:40:53;;;;;;;55.65;15.82;;;;;;;17.29;100.00;101673.50;5118982;28;20261;-56
2023/01/05 06:43:19;;;;;;;49.57;14.10;;;;;;;17.43;100.00;101670.69;5121276;28;20099;-54
2023/01/05 06:45:45;;;;;;;46.60;13.18;;;;;;;17.15;100.00;101667.38;5121344;28;20279;-56
2023/01/05 06:48:10;;;;;;;61.23;12.27;;;;;;;17.68;100.00;101672.56;5112916;28;20032;-53
2023/01/05 06:50:35;;;;;;;57.50;10.30;;;;;;;17.03;100.00;101679.94;5117350;28;20036;-51
2023/01/05 06:53:01;;;;;;;60.00;14.10;;;;;;;17.65;100.00;101670.31;5119067;28;20039;-52
2023/01/05 06:55:27;;;;;;;51.22;14.13;;;;;;;18.10;100.00;101669.22;5122472;28;20096;-55
2023/01/05 06:57:52;;;;;;;73.57;16.20;;;;;;;18.09;100.00;101681.09;5118311;28;20032;-53
2023/01/05 07:00:18;;;;;;;60.93;15.00;;;;;;;17.43;100.00;101686.91;5121846;28;20276;-53
2023/01/05 07:02:43;;;;;;;61.90;17.00;;;;;;;17.41;100.00;101686.31;5120944;28;20319;-53
2023/01/05 07:05:09;;;;;;;79.65;19.13;;;;;;;17.55;100.00;101679.75;5120815;28;20035;-54
2023/01/05 07:07:36;;;;;;;60.42;14.98;;;;;;;17.81;100.00;101685.13;5127819;28;20046;-53
2023/01/05 07:10:02;;;;;;;53.03;13.85;;;;;;;17.33;100.00;101680.16;5120367;28;20024;-53
2023/01/05 07:12:28;;;;;;;63.78;15.55;;;;;;;17.62;100.00;101695.91;5117848;28;20035;-53
2023/01/05 07:14:53;;;;;;;50.45;11.90;;;;;;;17.78;100.00;101694.53;5121947;28;20028;-54
2023/01/05 07:17:19;;;;;;;58.20;12.85;;;;;;;17.39;100.00;101696.53;5119868;28;20036;-52
2023/01/05 07:19:44;;;;;;;61.50;14.48;;;;;;;17.84;100.00;101704.47;5122199;28;20151;-50
2023/01/05 07:22:10;;;;;;;52.20;11.47;;;;;;;17.93;100.00;101705.00;5120719;28;20047;-50
2023/01/05 07:24:35;;;;;;;52.13;14.15;;;;;;;17.84;100.00;101712.56;5119178;28;20043;-56
2023/01/05 07:27:01;;;;;;;55.13;16.43;;;;;;;17.61;100.00;101711.31;5119679;28;20051;-50
2023/01/05 07:29:26;;;;;;;52.80;13.63;;;;;;;17.60;100.00;101708.81;5119629;28;20028;-50
2023/01/05 07:31:52;;;;;;;51.90;14.67;;;;;;;17.90;100.00;101711.66;5120868;28;20032;-56
2023/01/05 07:34:19;;;;;;;56.33;11.82;;;;;;;17.58;100.00;101714.47;5117258;28;20073;-50
2023/01/05 07:36:45;;;;;;;60.70;13.73;;;;;;;17.78;100.00;101748.63;5119149;28;20047;-53
2023/01/05 07:39:10;;;;;;;49.80;10.77;;;;;;;17.86;100.00;101707.75;5116182;28;20280;-54
2023/01/05 07:41:36;;;;;;;67.07;14.50;;;;;;;18.05;100.00;101705.91;5120531;28;20089;-54
2023/01/05 07:44:03;;;;;;;61.63;13.20;;;;;;;17.74;100.00;101712.22;5099934;28;20047;-55
2023/01/05 07:46:30;;;;;;;57.93;12.33;;;;;;;17.67;100.00;101716.88;5116525;28;20287;-57
2023/01/05 07:48:57;;;;;;;59.67;14.10;;;;;;;18.31;100.00;101714.00;5116854;28;20083;-54
2023/01/05 07:51:22;;;;;;;59.42;15.70;;;;;;;17.10;100.00;101723.97;5118307;28;20279;-52
2023/01/05 07:53:48;;;;;;;78.87;17.67;;;;;;;17.75;100.00;101725.56;5124055;28;20040;-52
2023/01/05 07:56:13;;;;;;;58.78;17.55;;;;;;;17.87;100.00;101728.34;5116900;28;20039;-56
2023/01/05 07:58:39;;;;;;;68.85;18.27;;;;;;;17.69;100.00;101731.00;5115125;28;20055;-56
2023/01/05 08:01:07;;;;;;;64.53;18.98;;;;;;;17.84;100.00;101739.63;5118372;28;20096;-52
2023/01/05 08:03:33;;;;;;;79.00;19.63;;;;;;;17.22;100.00;101742.19;5120955;28;20445;-53
2023/01/05 08:06:07;;;;;;;65.88;17.67;;;;;;;17.22;100.00;101737.59;5117912;28;20268;-52
2023/01/05 08:08:33;;;;;;;65.10;17.03;;;;;;;17.48;100.00;101735.75;5119752;28;20027;-54
2023/01/05 08:11:03;;;;;;;67.38;16.70;;;;;;;18.16;100.00;101742.25;5119248;28;20260;-52
2023/01/05 08:16:13;;;;;;;59.13;15.83;;;;;;;17.70;100.00;101754.31;5115355;28;20275;-55
2023/01/05 08:18:38;;;;;;;74.20;18.20;;;;;;;18.07;100.00;101759.84;5096591;28;20284;-53
2023/01/05 08:21:04;;;;;;;82.23;22.47;;;;;;;17.66;100.00;101763.91;5118569;28;20042;-54
2023/01/05 08:23:31;;;;;;;81.63;18.92;;;;;;;18.35;100.00;101755.81;5116552;28;20036;-54
2023/01/05 08:26:02;;;;;;;71.93;17.67;;;;;;;18.07;100.00;101770.66;5114395;28;20031;-52
2023/01/05 08:28:29;;;;;;;73.00;17.77;;;;;;;18.23;100.00;101758.44;5118609;28;20286;-52
2023/01/05 08:30:59;;;;;;;68.65;15.60;;;;;;;18.24;100.00;101762.78;5120821;28;20327;-53
2023/01/05 08:33:26;;;;;;;75.97;17.90;;;;;;;18.67;100.00;101768.34;5118479;28;20096;-54
2023/01/05 08:35:52;;;;;;;87.00;18.42;;;;;;;18.77;100.00;101774.91;5116604;28;20289;-55
2023/01/05 08:38:20;;;;;;;61.97;17.50;;;;;;;17.99;100.00;101785.28;5121792;28;20032;-54
2023/01/05 08:40:46;;;;;;;77.90;18.10;;;;;;;17.88;100.00;101776.00;5120502;28;20035;-54
2023/01/05 08:43:11;;;;;;;68.33;16.80;;;;;;;18.13;100.00;101788.72;5102386;28;20326;-52
2023/01/05 08:45:37;;;;;;;54.60;13.65;;;;;;;18.30;100.00;101791.66;5113585;28;20046;-52
2023/01/05 08:48:02;;;;;;;85.50;17.53;;;;;;;17.96;100.00;101791.13;5117903;28;20055;-49
2023/01/05 08:50:29;;;;;;;61.07;13.87;;;;;;;17.94;100.00;101793.25;5116086;28;20046;-49
2023/01/05 08:52:55;;;;;;;63.83;12.23;;;;;;;18.23;100.00;101799.03;5097005;28;20090;-50
2023/01/05 08:55:20;;;;;;;64.73;15.80;;;;;;;17.90;100.00;101789.31;5117160;28;20265;-51
2023/01/05 08:57:46;;;;;;;57.65;15.00;;;;;;;17.39;100.00;101793.88;5119794;28;20077;-49
2023/01/05 09:00:12;;;;;;;54.07;12.03;;;;;;;17.48;100.00;101803.34;5113956;28;20077;-53
2023/01/05 09:02:37;;;;;;;;;;;;;;;17.48;100.00;101812.31;5118252;28;20053;-48
2023/01/05 09:05:03;;;;;;;67.70;13.60;;;;;;;18.11;100.00;101823.31;5116779;28;19908;-52
2023/01/05 09:07:29;;;;;;;64.78;16.33;;;;;;;17.83;100.00;101823.72;5118922;28;20039;-54
2023/01/05 09:09:54;;;;;;;61.63;14.33;;;;;;;17.95;100.00;101826.53;5120829;28;20099;-51
2023/01/05 09:12:20;;;;;;;66.22;15.43;;;;;;;17.48;100.00;101825.00;5116329;28;20123;-52
2023/01/05 09:14:46;;;;;;;45.60;9.77;;;;;;;17.79;100.00;101828.75;5118852;28;20054;-53
2023/01/05 09:17:11;;;;;;;47.87;9.13;;;;;;;18.01;100.00;101836.50;5117713;28;20079;-55
2023/01/05 09:19:36;;;;;;;48.13;10.70;;;;;;;17.78;100.00;101833.31;5117748;28;20028;-53
2023/01/05 09:22:02;;;;;;;73.13;14.82;;;;;;;18.78;100.00;101836.16;5116582;28;20031;-52
2023/01/05 09:24:28;;;;;;;43.20;7.17;;;;;;;19.72;100.00;101844.13;5109656;28;20024;-50
2023/01/05 09:26:53;;;;;;;52.20;9.00;;;;;;;17.78;100.00;101833.31;5110509;28;20268;-52
2023/01/05 09:29:19;;;;;;;66.75;10.68;;;;;;;17.96;100.00;101837.16;5112543;28;20078;-53
2023/01/05 09:31:44;;;;;;;51.85;9.00;;;;;;;18.12;100.00;101832.25;5111715;28;20059;-55
2023/01/05 09:34:10;;;;;;;49.27;10.07;;;;;;;18.46;100.00;101839.03;5105841;28;20048;-53
2023/01/05 09:36:39;;;;;;;54.05;10.02;;;;;;;18.57;100.00;101842.88;5110295;28;20028;-55
2023/01/05 09:39:05;;;;;;;60.27;8.50;;;;;;;17.61;100.00;101843.84;5110991;28;20028;-55
2023/01/05 09:41:40;;;;;;;70.40;12.63;;;;;;;17.60;100.00;101852.16;5108514;28;20336;-52
2023/01/05 09:44:15;;;;;;;40.97;8.47;;;;;;;17.46;100.00;101854.13;5107355;28;20281;-56
2023/01/05 09:46:45;;;;;;;53.17;9.47;;;;;;;17.33;100.00;101845.06;5112018;28;20249;-55
2023/01/05 09:49:13;;;;;;;46.47;7.73;;;;;;;18.18;100.00;101856.53;5108553;28;20316;-55
2023/01/05 09:51:39;;;;;;;55.27;12.77;;;;;;;18.24;100.00;101862.97;5111277;28;20275;-57
2023/01/05 09:54:04;;;;;;;42.00;9.05;;;;;;;17.48;100.00;101854.72;5103798;28;20284;-54
2023/01/05 09:56:37;;;;;;;43.63;9.40;;;;;;;17.38;100.00;101860.63;5109200;28;20039;-54
2023/01/05 09:59:15;;;;;;;53.53;10.27;;;;;;;17.42;100.00;101866.44;5105455;28;20054;-53
2023/01/05 10:01:42;;;;;;;53.33;12.17;;;;;;;17.45;100.00;101861.44;5118203;28;20272;-56
2023/01/05 10:04:15;;;;;;;50.73;13.20;;;;;;;17.29;100.00;101864.63;5115767;28;20299;-53
2023/01/05 10:06:50;;;;;;;55.90;15.27;;;;;;;18.14;100.00;101877.00;5115785;28;20265;-55
2023/01/05 10:09:22;;;;;;;54.90;14.20;;;;;;;18.34;100.00;101878.72;5116678;28;20268;-53
2023/01/05 10:14:46;;;;;;;58.93;12.07;;;;;;;17.88;100.00;101870.72;5121119;28;20287;-55
2023/01/05 10:17:15;;;;;;;50.23;11.40;;;;;;;17.68;100.00;101878.13;5105755;28;20290;-54
2023/01/05 10:19:50;;;;;;;42.77;8.30;;;;;;;18.02;100.00;101882.28;5121150;28;20287;-53
2023/01/05 10:22:39;;;;;;;43.45;9.88;;;;;;;17.83;100.00;101883.22;5120120;28;20328;-54
2023/01/05 10:25:27;;;;;;;50.17;7.47;;;;;;;17.62;100.00;101886.06;5117224;28;20047;-52
2023/01/05 10:28:08;;;;;;;38.37;8.10;;;;;;;18.30;100.00;101888.31;5116052;28;20293;-54
2023/01/05 10:30:52;;;;;;;34.07;8.73;;;;;;;17.99;100.00;101893.53;5121521;28;20267;-56
2023/01/05 10:33:39;;;;;;;55.13;8.13;;;;;;;18.04;100.00;101901.03;5118816;28;20276;-54
2023/01/05 10:36:31;;;;;;;54.72;7.35;;;;;;;17.94;100.00;101901.50;5120132;28;20269;-53
2023/01/05 10:39:19;;;;;;;41.63;7.70;;;;;;;18.44;100.00;101892.56;5122877;28;20069;-55
2023/01/05 10:42:02;;;;;;;36.40;6.20;;;;;;;18.60;100.00;101898.47;5123372;28;20271;-54
2023/01/05 10:44:46;;;;;;;51.20;8.73;;;;;;;18.09;100.00;101887.66;5117070;28;20268;-53
2023/01/05 10:47:13;;;;;;;52.33;8.43;;;;;;;18.37;100.00;101894.50;5117474;28;20249;-50
2023/01/05 10:49:42;;;;;;;56.17;11.68;;;;;;;18.69;100.00;101894.44;5124996;28;20272;-55
2023/01/05 10:52:13;;;;;;;46.57;10.33;;;;;;;18.87;100.00;101912.56;5116299;28;20108;-53
2023/01/05 10:54:46;;;;;;;45.10;11.80;;;;;;;18.52;100.00;101909.59;5120526;28;20268;-53
2023/01/05 10:57:27;;;;;;;69.07;15.03;;;;;;;19.18;100.00;101904.53;5120011;28;20286;-55
2023/01/05 10:59:57;;;;;;;56.00;11.90;;;;;;;18.85;100.00;101909.25;5118329;28;20280;-54
2023/01/05 11:02:24;;;;;;;48.03;7.97;;;;;;;19.20;100.00;101897.00;5119332;28;20264;-54
2023/01/05 11:04:50;;;;;;;49.53;9.87;;;;;;;19.18;100.00;101891.78;5119568;28;20268;-49
2023/01/05 11:07:16;;;;;;;34.47;6.85;;;;;;;19.06;100.00;101899.06;5119600;28;20273;-54
2023/01/05 11:09:45;;;;;;;43.60;8.35;;;;;;;18.75;100.00;101898.94;5119713;28;20036;-50
2023/01/05 11:12:18;;;;;;;36.93;7.03;;;;;;;19.02;100.00;101901.38;5114611;28;20036;-52
2023/01/05 11:14:52;;;;;;;41.40;6.93;;;;;;;19.04;100.00;101899.25;5107366;28;20256;-51
2023/01/05 11:17:22;;;;;;;52.13;8.00;;;;;;;18.40;100.00;101895.94;5111849;28;20272;-53
2023/01/05 11:19:51;;;;;;;38.57;9.50;;;;;;;18.83;100.00;101896.97;5119529;28;20432;-52
2023/01/05 11:22:34;;;;;;;43.03;7.87;;;;;;;18.95;100.00;101883.50;5110904;28;20269;-54
2023/01/05 11:25:13;;;;;;;54.87;8.43;;;;;;;19.38;100.00;101879.06;5105594;28;20265;-56
2023/01/05 11:27:39;;;;;;;48.97;8.57;;;;;;;18.94;100.00;101882.69;5110580;28;20115;-55
2023/01/05 11:30:13;;;;;;;50.78;7.95;;;;;;;18.96;100.00;101882.44;5109780;28;20028;-54
2023/01/05 11:32:40;;;;;;;41.03;6.57;;;;;;;18.89;100.00;101879.81;5109473;28;20055;-55
2023/01/05 11:35:17;;;;;;;45.73;7.40;;;;;;;19.04;100.00;101888.44;5111252;28;20081;-52
2023/01/05 11:37:44;;;;;;;39.05;5.18;;;;;;;20.28;100.00;101884.59;5112657;28;20292;-53
2023/01/05 11:40:22;;;;;;;48.17;8.93;;;;;;;20.11;100.00;101893.44;5113308;28;20051;-50
2023/01/05 11:42:48;;;;;;;33.70;8.57;;;;;;;20.80;100.00;101893.94;5109440;28;20032;-53
2023/01/05 11:45:24;;;;;;;44.93;10.20;;;;;;;21.58;100.00;101891.66;5112025;28;20043;-52
2023/01/05 11:48:02;;;;;;;44.43;9.10;;;;;;;21.81;97.93;101895.38;5110946;28;20027;-54